createdAt,value
2023-03-02T00:03:38.504Z,99080.91
2023-03-02T00:08:44.145Z,99075.34
2023-03-02T00:13:46.914Z,99081.16
2023-03-02T00:18:49.649Z,99067.63
2023-03-02T00:23:53.204Z,99090.38
2023-03-02T00:28:58.075Z,99082.09
2023-03-02T00:34:01.026Z,99078.78
2023-03-02T00:39:05.018Z,99071.91
2023-03-02T00:44:07.976Z,99088.13
2023-03-02T00:49:11.449Z,99086.34
2023-03-02T00:54:14.247Z,99095.91
2023-03-02T00:59:28.963Z,99087.09
2023-03-02T01:04:41.167Z,99082.22
2023-03-02T01:09:44.810Z,99069.31
2023-03-02T01:14:49.192Z,99066.31
2023-03-02T01:19:54.043Z,99069.72
2023-03-02T01:24:56.791Z,99072.34
2023-03-02T01:29:59.656Z,99051.66
2023-03-02T01:35:02.716Z,99047.38
2023-03-02T01:40:07.186Z,99034.22
2023-03-02T01:45:47.638Z,99033.09
2023-03-02T01:50:54.654Z,99036.75
2023-03-02T01:55:58.435Z,99032.50
2023-03-02T02:01:01.628Z,99022.59
2023-03-02T02:06:12.478Z,99017.06
2023-03-02T02:11:15.312Z,99018.25
2023-03-02T02:16:18.623Z,99017.75
2023-03-02T02:21:22.812Z,99013.84
2023-03-02T02:26:30.109Z,98997.09
2023-03-02T02:31:38.420Z,99005.47
2023-03-02T02:36:43.605Z,99001.97
2023-03-02T02:41:51.575Z,98983.97
2023-03-02T02:46:55.034Z,98991.31
2023-03-02T02:51:58.396Z,98985.28
2023-03-02T02:57:02.952Z,98989.28
2023-03-02T03:02:06.248Z,98981.53
2023-03-02T03:07:11.339Z,98978.53
2023-03-02T03:12:17.634Z,98953.50
2023-03-02T03:17:20.569Z,98913.81
2023-03-02T03:22:28.885Z,98951.94
2023-03-02T03:27:32.209Z,98939.63
2023-03-02T03:32:37.093Z,98944.94
2023-03-02T03:37:41.739Z,98955.47
2023-03-02T03:42:45.292Z,98951.13
2023-03-02T03:47:48.839Z,98936.91
2023-03-02T03:52:52.027Z,98935.13
2023-03-02T03:58:00.348Z,98934.69
2023-03-02T04:03:03.517Z,98896.44
2023-03-02T04:08:08.708Z,98920.56
2023-03-02T04:13:12.540Z,98919.25
2023-03-02T04:18:15.839Z,98916.66
2023-03-02T04:23:18.677Z,98915.06
2023-03-02T04:28:21.935Z,98912.78
2023-03-02T04:33:25.416Z,98914.59
2023-03-02T04:38:29.962Z,98903.91
2023-03-02T04:43:33.099Z,98903.22
2023-03-02T04:48:35.772Z,98911.06
2023-03-02T04:53:38.455Z,98904.50
2023-03-02T04:58:41.171Z,98904.34
2023-03-02T05:03:44.068Z,98906.38
2023-03-02T05:08:46.807Z,98917.34
2023-03-02T05:13:55.568Z,98906.63
2023-03-02T05:18:58.953Z,98898.28
2023-03-02T05:24:01.727Z,98895.13
2023-03-02T05:29:04.724Z,98889.16
2023-03-02T05:34:10.020Z,98893.94
2023-03-02T05:39:13.242Z,98911.97
2023-03-02T05:44:15.971Z,98904.16
2023-03-02T05:49:18.710Z,98915.38
2023-03-02T05:54:21.716Z,98904.16
2023-03-02T05:59:24.886Z,98909.06
2023-03-02T06:04:27.532Z,98902.97
2023-03-02T06:09:30.146Z,98908.75
2023-03-02T06:14:33.144Z,98911.81
2023-03-02T06:19:36.466Z,98893.44
2023-03-02T06:24:39.151Z,98912.88
2023-03-02T06:29:42.055Z,98910.72
2023-03-02T06:34:44.728Z,98919.03
2023-03-02T06:39:47.385Z,98912.81
2023-03-02T06:44:51.727Z,98894.94
2023-03-02T06:49:54.527Z,98880.06
2023-03-02T06:54:57.220Z,98876.72
2023-03-02T07:00:10.060Z,98868.72
2023-03-02T07:05:13.698Z,98882.22
2023-03-02T07:10:16.822Z,98860.25
2023-03-02T07:15:20.415Z,98855.56
2023-03-02T07:20:23.176Z,98861.00
2023-03-02T07:25:26.070Z,98840.16
2023-03-02T07:30:28.812Z,98863.44
2023-03-02T07:35:31.553Z,98838.00
2023-03-02T07:40:34.407Z,98859.34
2023-03-02T07:45:38.103Z,98865.34
2023-03-02T07:50:40.905Z,98877.66
2023-03-02T07:55:43.586Z,98867.47
2023-03-02T08:00:46.624Z,98877.63
2023-03-02T08:05:49.259Z,98864.19
2023-03-02T08:10:55.170Z,98886.03
2023-03-02T08:16:04.959Z,98886.03
2023-03-02T08:21:19.237Z,98892.66
2023-03-02T08:26:22.216Z,98880.59
2023-03-02T08:31:26.222Z,98883.22
2023-03-02T08:36:28.983Z,98898.31
2023-03-02T08:41:32.109Z,98895.81
2023-03-02T08:46:35.094Z,98895.78
2023-03-02T08:51:37.933Z,98891.44
2023-03-02T08:56:40.863Z,98877.97
2023-03-02T09:01:43.774Z,98898.16
2023-03-02T09:06:46.623Z,98896.41
2023-03-02T09:11:49.564Z,98911.50
2023-03-02T09:16:53.210Z,98897.16
2023-03-02T09:21:55.960Z,98896.25
2023-03-02T09:26:58.724Z,98910.56
2023-03-02T09:32:01.581Z,98907.88
2023-03-02T09:37:04.396Z,98931.38
2023-03-02T09:42:18.995Z,98921.19
2023-03-02T09:47:37.898Z,98911.09
2023-03-02T09:52:46.960Z,98916.47
2023-03-02T09:57:50.072Z,98917.41
2023-03-02T10:03:05.162Z,98916.97
2023-03-02T10:08:21.121Z,98919.22
2023-03-02T10:13:47.659Z,98924.28
2023-03-02T10:19:06.725Z,98916.56
2023-03-02T10:24:13.118Z,98941.69
2023-03-02T10:29:34.043Z,98938.78
2023-03-02T10:34:38.269Z,98949.72
2023-03-02T10:39:41.456Z,98935.41
2023-03-02T10:44:51.884Z,98948.81
2023-03-02T10:49:56.580Z,98950.25
2023-03-02T10:55:10.477Z,98961.00
2023-03-02T11:00:24.728Z,98955.03
2023-03-02T11:05:37.311Z,98954.75
2023-03-02T11:11:01.587Z,98945.13
2023-03-02T11:16:29.140Z,98954.91
2023-03-02T11:21:44.330Z,98973.97
2023-03-02T11:26:54.593Z,98975.25
2023-03-02T11:32:01.597Z,98977.34
2023-03-02T11:37:19.228Z,98958.31
2023-03-02T11:42:23.090Z,98960.75
2023-03-02T11:47:25.854Z,98962.28
2023-03-02T11:52:31.227Z,98953.94
2023-03-02T11:57:44.510Z,98953.69
2023-03-02T12:03:01.926Z,98945.78
2023-03-02T12:08:30.106Z,98938.06
2023-03-02T12:13:40.673Z,98954.25
2023-03-02T12:18:49.315Z,98979.59
2023-03-02T12:23:52.701Z,98979.81
2023-03-02T12:29:03.294Z,98987.56
2023-03-02T12:34:22.655Z,98959.47
2023-03-02T12:40:03.241Z,98968.34
2023-03-02T12:45:34.022Z,98954.38
2023-03-02T12:50:38.471Z,98950.03
2023-03-02T12:55:41.559Z,98970.47
2023-03-02T13:00:53.904Z,98965.84
2023-03-02T13:06:14.340Z,98964.16
2023-03-02T13:11:37.193Z,98969.88
2023-03-02T13:16:39.906Z,98966.00
2023-03-02T13:21:42.712Z,98955.22
2023-03-02T13:26:56.069Z,98965.84
2023-03-02T13:32:28.788Z,98961.09
2023-03-02T13:37:41.132Z,98979.19
2023-03-02T13:42:44.002Z,98959.34
2023-03-02T13:47:46.729Z,98932.19
2023-03-02T13:52:50.590Z,98951.72
2023-03-02T13:57:54.443Z,98952.25
2023-03-02T14:03:11.189Z,98944.72
2023-03-02T14:14:56.771Z,98947.19
2023-03-02T14:19:59.645Z,98954.09
2023-03-02T14:25:02.487Z,98924.91
2023-03-02T14:30:20.625Z,98951.50
2023-03-02T14:35:24.704Z,98925.16
2023-03-02T14:40:28.755Z,98929.59
2023-03-02T14:45:31.453Z,98935.88
2023-03-02T14:50:37.931Z,98947.44
2023-03-02T14:55:41.192Z,98936.59
2023-03-02T15:00:44.340Z,98960.91
2023-03-02T15:06:00.262Z,98972.47
2023-03-02T15:11:03.506Z,98970.63
2023-03-02T15:16:06.810Z,98965.25
2023-03-02T15:21:16.435Z,98960.97
2023-03-02T15:26:19.335Z,98961.94
2023-03-02T15:31:22.320Z,98981.91
2023-03-02T15:36:26.741Z,98969.22
2023-03-02T15:41:35.380Z,98962.09
2023-03-02T15:46:41.951Z,98981.50
2023-03-02T15:51:44.753Z,98979.34
2023-03-02T15:56:54.415Z,99003.91
2023-03-02T16:02:02.661Z,98972.28
2023-03-02T16:07:07.768Z,98999.19
2023-03-02T16:12:10.404Z,98992.63
2023-03-02T16:17:13.123Z,98992.47
2023-03-02T16:22:15.942Z,98977.94
2023-03-02T16:27:18.632Z,98987.19
2023-03-02T16:32:22.379Z,98976.03
2023-03-02T16:37:25.069Z,98984.78
2023-03-02T16:42:30.791Z,98971.06
2023-03-02T16:47:33.481Z,98988.44
2023-03-02T16:52:36.843Z,98988.78
2023-03-02T16:57:39.621Z,98991.72
2023-03-02T17:02:48.260Z,99007.16
2023-03-02T17:07:51.178Z,99011.78
2023-03-02T17:12:53.887Z,99025.19
2023-03-02T17:17:56.669Z,99012.38
2023-03-02T17:22:59.372Z,99004.16
2023-03-02T17:28:02.034Z,99006.88
2023-03-02T17:33:04.858Z,99029.09
2023-03-02T17:38:07.627Z,99042.44
2023-03-02T17:43:17.829Z,99045.50
2023-03-02T17:48:25.628Z,99031.53
2023-03-02T17:53:37.793Z,99048.63
2023-03-02T17:58:45.044Z,99047.19
2023-03-02T18:03:48.225Z,99026.03
2023-03-02T18:08:54.376Z,99046.59
2023-03-02T18:13:58.308Z,99050.72
2023-03-02T18:19:00.948Z,99050.56
2023-03-02T18:24:04.461Z,99068.47
2023-03-02T18:29:07.282Z,99073.03
2023-03-02T18:34:09.998Z,99082.34
2023-03-02T18:39:14.555Z,99084.78
2023-03-02T18:44:18.149Z,99099.97
2023-03-02T18:49:20.894Z,99084.34
2023-03-02T18:54:24.762Z,99103.78
2023-03-02T18:59:29.074Z,99101.94
2023-03-02T19:04:31.908Z,99079.53
2023-03-02T19:09:35.242Z,99072.41
2023-03-02T19:14:38.172Z,99095.84
2023-03-02T19:19:43.515Z,99103.44
2023-03-02T19:24:47.212Z,99117.19
2023-03-02T19:29:49.866Z,99109.97
2023-03-02T19:34:52.740Z,99124.56
2023-03-02T19:39:55.398Z,99161.25
2023-03-02T19:44:58.159Z,99176.94
2023-03-02T19:50:00.851Z,99167.47
2023-03-02T19:55:07.176Z,99188.66
2023-03-02T20:00:14.997Z,99192.84
2023-03-02T20:05:17.832Z,99202.09
2023-03-02T20:10:28.526Z,99213.34
2023-03-02T20:15:34.400Z,99207.59
2023-03-02T20:20:37.293Z,99201.84
2023-03-02T20:25:40.555Z,99216.97
2023-03-02T20:30:46.852Z,99215.22
2023-03-02T20:35:50.225Z,99220.13
2023-03-02T20:40:52.928Z,99210.88
2023-03-02T20:45:55.793Z,99213.31
2023-03-02T20:50:59.065Z,99228.69
2023-03-02T20:56:01.980Z,99223.31
2023-03-02T21:01:04.891Z,99238.09
2023-03-02T21:06:08.183Z,99221.97
2023-03-02T21:11:16.133Z,99248.06
2023-03-02T21:16:24.908Z,99242.75
2023-03-02T21:21:40.735Z,99222.91
2023-03-02T21:26:49.044Z,99245.03
2023-03-02T21:31:51.972Z,99239.06
2023-03-02T21:36:54.871Z,99247.66
2023-03-02T21:41:57.615Z,99223.56
2023-03-02T21:47:00.298Z,99256.03
2023-03-02T21:52:03.103Z,99255.59
2023-03-02T21:57:05.867Z,99236.16
2023-03-02T22:02:08.748Z,99242.03
2023-03-02T22:07:11.565Z,99227.22
2023-03-02T22:12:15.034Z,99231.84
2023-03-02T22:17:21.354Z,99204.44
2023-03-02T22:22:27.258Z,99235.38
2023-03-02T22:27:31.811Z,99232.47
2023-03-02T22:32:37.017Z,99241.09
2023-03-02T22:37:40.128Z,99232.06
2023-03-02T22:42:42.857Z,99229.25
2023-03-02T22:47:49.478Z,99237.88
2023-03-02T22:52:53.386Z,99232.31
2023-03-02T22:57:56.182Z,99228.72
2023-03-02T23:02:59.019Z,99227.06
2023-03-02T23:08:19.003Z,99221.91
2023-03-02T23:13:27.216Z,99233.41
2023-03-02T23:18:30.742Z,99225.75
2023-03-02T23:23:35.247Z,99228.31
2023-03-02T23:28:38.062Z,99204.91
2023-03-02T23:33:41.188Z,99215.09
2023-03-02T23:38:43.870Z,99230.75
2023-03-02T23:43:46.637Z,99221.59
2023-03-02T23:48:49.452Z,99224.19
2023-03-02T23:53:55.387Z,99225.03
2023-03-02T23:58:58.050Z,99219.22
